sensor_id;sensor_type;location;lat;lon;timestamp;pressure;altitude;pressure_sealevel;temperature;humidity
40708;BME280;26392;42.696;23.350;2023-03-25T00:01:56;95021.03;;;9.71;100.00
40708;BME280;26392;42.696;23.350;2023-03-25T00:04:22;95034.97;;;9.75;100.00
40708;BME280;26392;42.696;23.350;2023-03-25T00:06:54;95028.16;;;9.72;100.00
40708;BME280;26392;42.696;23.350;2023-03-25T00:09:21;95035.44;;;9.67;100.00
40708;BME280;26392;42.696;23.350;2023-03-25T00:11:49;95031.06;;;9.66;100.00
40708;BME280;26392;42.696;23.350;2023-03-25T00:14:15;95027.47;;;9.60;100.00
40708;BME280;26392;42.696;23.350;2023-03-25T00:16:42;95018.19;;;9.56;100.00
40708;BME280;26392;42.696;23.350;2023-03-25T00:19:07;95020.84;;;9.51;100.00
40708;BME280;26392;42.696;23.350;2023-03-25T00:21:33;95011.66;;;9.57;100.00
40708;BME280;26392;42.696;23.350;2023-03-25T00:24:00;95018.38;;;9.49;100.00
40708;BME280;26392;42.696;23.350;2023-03-25T00:26:26;95017.81;;;9.47;100.00
40708;BME280;26392;42.696;23.350;2023-03-25T00:28:54;95012.31;;;9.42;100.00
40708;BME280;26392;42.696;23.350;2023-03-25T00:31:20;95004.97;;;9.43;100.00
40708;BME280;26392;42.696;23.350;2023-03-25T00:33:46;95003.59;;;9.40;100.00
40708;BME280;26392;42.696;23.350;2023-03-25T00:36:11;95007.91;;;9.36;100.00
40708;BME280;26392;42.696;23.350;2023-03-25T00:38:38;95008.66;;;9.31;100.00
40708;BME280;26392;42.696;23.350;2023-03-25T00:43:42;94997.41;;;9.23;100.00
40708;BME280;26392;42.696;23.350;2023-03-25T00:46:07;95003.59;;;9.18;100.00
40708;BME280;26392;42.696;23.350;2023-03-25T00:48:33;94997.63;;;9.16;100.00
40708;BME280;26392;42.696;23.350;2023-03-25T00:50:59;94998.44;;;9.16;100.00
40708;BME280;26392;42.696;23.350;2023-03-25T00:53:31;95003.06;;;9.16;100.00
40708;BME280;26392;42.696;23.350;2023-03-25T00:55:57;95001.09;;;9.11;100.00
40708;BME280;26392;42.696;23.350;2023-03-25T00:58:22;94992.94;;;9.11;100.00
40708;BME280;26392;42.696;23.350;2023-03-25T01:00:48;94991.84;;;9.12;100.00
40708;BME280;26392;42.696;23.350;2023-03-25T01:03:14;94994.03;;;9.10;100.00
40708;BME280;26392;42.696;23.350;2023-03-25T01:05:39;94992.44;;;9.14;100.00
40708;BME280;26392;42.696;23.350;2023-03-25T01:08:07;94991.25;;;9.05;100.00
40708;BME280;26392;42.696;23.350;2023-03-25T01:10:35;94984.72;;;9.06;100.00
40708;BME280;26392;42.696;23.350;2023-03-25T01:13:01;94971.06;;;9.01;100.00
40708;BME280;26392;42.696;23.350;2023-03-25T01:15:26;94984.66;;;9.01;100.00
40708;BME280;26392;42.696;23.350;2023-03-25T01:17:52;94987.38;;;9.01;100.00
40708;BME280;26392;42.696;23.350;2023-03-25T01:20:17;94984.59;;;8.96;100.00
40708;BME280;26392;42.696;23.350;2023-03-25T01:22:43;94977.66;;;8.83;100.00
40708;BME280;26392;42.696;23.350;2023-03-25T01:25:08;94977.66;;;8.83;100.00
40708;BME280;26392;42.696;23.350;2023-03-25T01:27:34;94973.75;;;8.74;100.00
40708;BME280;26392;42.696;23.350;2023-03-25T01:30:00;94970.53;;;8.77;100.00
40708;BME280;26392;42.696;23.350;2023-03-25T01:32:27;94957.44;;;8.74;100.00
40708;BME280;26392;42.696;23.350;2023-03-25T01:34:53;94958.00;;;8.76;100.00
40708;BME280;26392;42.696;23.350;2023-03-25T01:37:18;94956.66;;;8.79;100.00
40708;BME280;26392;42.696;23.350;2023-03-25T01:39:43;94952.06;;;8.79;100.00
40708;BME280;26392;42.696;23.350;2023-03-25T01:42:09;94955.53;;;8.74;100.00
40708;BME280;26392;42.696;23.350;2023-03-25T01:47:02;94943.44;;;8.65;100.00
40708;BME280;26392;42.696;23.350;2023-03-25T01:49:33;94945.94;;;8.67;100.00
40708;BME280;26392;42.696;23.350;2023-03-25T01:52:17;94942.41;;;8.66;100.00
40708;BME280;26392;42.696;23.350;2023-03-25T01:54:46;94953.63;;;8.53;100.00
40708;BME280;26392;42.696;23.350;2023-03-25T01:57:18;94945.16;;;8.49;100.00
40708;BME280;26392;42.696;23.350;2023-03-25T01:59:45;94954.44;;;8.54;100.00
40708;BME280;26392;42.696;23.350;2023-03-25T02:02:11;94952.00;;;8.52;100.00
40708;BME280;26392;42.696;23.350;2023-03-25T02:04:52;94951.19;;;8.51;100.00
40708;BME280;26392;42.696;23.350;2023-03-25T02:07:25;94942.97;;;8.46;100.00
40708;BME280;26392;42.696;23.350;2023-03-25T02:09:58;94945.97;;;8.50;100.00
40708;BME280;26392;42.696;23.350;2023-03-25T02:12:24;94941.88;;;8.47;100.00
40708;BME280;26392;42.696;23.350;2023-03-25T02:14:50;94942.69;;;8.48;100.00
40708;BME280;26392;42.696;23.350;2023-03-25T02:20:10;94933.41;;;8.44;100.00
40708;BME280;26392;42.696;23.350;2023-03-25T02:37:16;94928.66;;;8.17;100.00
40708;BME280;26392;42.696;23.350;2023-03-25T02:39:58;94919.19;;;8.20;100.00
40708;BME280;26392;42.696;23.350;2023-03-25T02:43:02;94919.97;;;8.15;100.00
40708;BME280;26392;42.696;23.350;2023-03-25T02:45:35;94930.25;;;8.13;100.00
40708;BME280;26392;42.696;23.350;2023-03-25T02:48:14;94926.38;;;8.09;100.00
40708;BME280;26392;42.696;23.350;2023-03-25T02:50:47;94929.06;;;8.09;100.00
40708;BME280;26392;42.696;23.350;2023-03-25T02:53:24;94930.06;;;8.03;100.00
40708;BME280;26392;42.696;23.350;2023-03-25T02:55:51;94928.88;;;7.94;100.00
40708;BME280;26392;42.696;23.350;2023-03-25T02:58:20;94915.13;;;8.00;100.00
40708;BME280;26392;42.696;23.350;2023-03-25T03:00:47;94915.47;;;7.87;100.00
40708;BME280;26392;42.696;23.350;2023-03-25T03:03:13;94914.56;;;7.98;100.00
40708;BME280;26392;42.696;23.350;2023-03-25T03:05:42;94903.72;;;7.81;100.00
40708;BME280;26392;42.696;23.350;2023-03-25T03:16:31;94911.19;;;7.74;100.00
40708;BME280;26392;42.696;23.350;2023-03-25T03:25:01;94924.97;;;7.39;100.00
40708;BME280;26392;42.696;23.350;2023-03-25T03:27:35;94923.16;;;7.28;100.00
40708;BME280;26392;42.696;23.350;2023-03-25T03:30:08;94929.75;;;7.32;100.00
40708;BME280;26392;42.696;23.350;2023-03-25T03:32:58;94927.09;;;7.20;100.00
40708;BME280;26392;42.696;23.350;2023-03-25T03:35:30;94925.53;;;7.24;100.00
40708;BME280;26392;42.696;23.350;2023-03-25T03:38:00;94917.00;;;7.32;100.00
40708;BME280;26392;42.696;23.350;2023-03-25T03:40:29;94918.16;;;7.36;100.00
40708;BME280;26392;42.696;23.350;2023-03-25T03:42:59;94914.41;;;7.37;100.00
40708;BME280;26392;42.696;23.350;2023-03-25T03:45:34;94923.09;;;7.39;100.00
40708;BME280;26392;42.696;23.350;2023-03-25T03:48:04;94935.50;;;7.35;100.00
40708;BME280;26392;42.696;23.350;2023-03-25T03:50:41;94918.75;;;7.38;100.00
40708;BME280;26392;42.696;23.350;2023-03-25T03:53:36;94926.63;;;7.40;100.00
40708;BME280;26392;42.696;23.350;2023-03-25T03:56:14;94916.28;;;7.37;100.00
40708;BME280;26392;42.696;23.350;2023-03-25T03:58:42;94920.03;;;7.36;100.00
40708;BME280;26392;42.696;23.350;2023-03-25T04:01:15;94922.19;;;7.34;100.00
40708;BME280;26392;42.696;23.350;2023-03-25T04:03:54;94923.16;;;7.28;100.00
40708;BME280;26392;42.696;23.350;2023-03-25T04:06:37;94924.00;;;7.28;100.00
40708;BME280;26392;42.696;23.350;2023-03-25T04:11:58;94938.00;;;7.25;100.00
40708;BME280;26392;42.696;23.350;2023-03-25T04:14:24;94928.84;;;7.26;100.00
40708;BME280;26392;42.696;23.350;2023-03-25T04:16:50;94916.59;;;7.24;100.00
40708;BME280;26392;42.696;23.350;2023-03-25T04:19:17;94926.44;;;7.30;100.00
40708;BME280;26392;42.696;23.350;2023-03-25T04:21:44;94926.44;;;7.30;100.00
40708;BME280;26392;42.696;23.350;2023-03-25T04:24:10;94921.63;;;7.32;100.00
40708;BME280;26392;42.696;23.350;2023-03-25T04:26:36;94911.34;;;7.34;100.00
40708;BME280;26392;42.696;23.350;2023-03-25T04:29:03;94914.97;;;7.39;100.00
40708;BME280;26392;42.696;23.350;2023-03-25T04:31:29;94915.78;;;7.40;100.00
40708;BME280;26392;42.696;23.350;2023-03-25T04:33:56;94927.53;;;7.46;100.00
40708;BME280;26392;42.696;23.350;2023-03-25T04:36:23;94924.34;;;7.49;100.00
40708;BME280;26392;42.696;23.350;2023-03-25T04:38:49;94931.97;;;7.52;100.00
40708;BME280;26392;42.696;23.350;2023-03-25T04:41:17;94931.00;;;7.58;100.00
40708;BME280;26392;42.696;23.350;2023-03-25T04:43:42;94935.91;;;7.61;100.00
40708;BME280;26392;42.696;23.350;2023-03-25T04:46:13;94929.94;;;7.76;100.00
40708;BME280;26392;42.696;23.350;2023-03-25T04:48:39;94928.59;;;7.78;100.00
40708;BME280;26392;42.696;23.350;2023-03-25T04:51:07;94933.38;;;7.88;100.00
40708;BME280;26392;42.696;23.350;2023-03-25T04:53:35;94933.38;;;7.88;100.00
40708;BME280;26392;42.696;23.350;2023-03-25T04:56:01;94919.09;;;7.93;100.00
40708;BME280;26392;42.696;23.350;2023-03-25T04:58:26;94933.88;;;8.02;100.00
40708;BME280;26392;42.696;23.350;2023-03-25T05:00:53;94931.88;;;8.14;100.00
40708;BME280;26392;42.696;23.350;2023-03-25T05:03:19;94923.34;;;8.05;100.00
40708;BME280;26392;42.696;23.350;2023-03-25T05:05:49;94940.09;;;8.19;100.00
40708;BME280;26392;42.696;23.350;2023-03-25T05:08:16;94944.53;;;8.25;100.00
40708;BME280;26392;42.696;23.350;2023-03-25T05:10:41;94941.88;;;8.30;100.00
40708;BME280;26392;42.696;23.350;2023-03-25T05:13:07;94939.25;;;8.36;100.00
40708;BME280;26392;42.696;23.350;2023-03-25T05:15:34;94940.03;;;8.53;100.00
40708;BME280;26392;42.696;23.350;2023-03-25T05:18:14;94937.91;;;8.55;100.00
40708;BME280;26392;42.696;23.350;2023-03-25T05:20:41;94945.78;;;8.57;100.00
40708;BME280;26392;42.696;23.350;2023-03-25T05:23:09;94943.34;;;8.55;100.00
40708;BME280;26392;42.696;23.350;2023-03-25T05:25:39;94936.50;;;8.52;100.00
40708;BME280;26392;42.696;23.350;2023-03-25T05:28:05;94937.09;;;8.77;100.00
40708;BME280;26392;42.696;23.350;2023-03-25T05:30:34;94934.94;;;8.79;100.00
40708;BME280;26392;42.696;23.350;2023-03-25T05:33:04;94945.88;;;8.84;100.00
40708;BME280;26392;42.696;23.350;2023-03-25T05:35:29;94925.38;;;8.98;100.00
40708;BME280;26392;42.696;23.350;2023-03-25T05:37:55;94940.28;;;9.17;100.00
40708;BME280;26392;42.696;23.350;2023-03-25T05:40:21;94937.56;;;9.17;100.00
40708;BME280;26392;42.696;23.350;2023-03-25T05:42:46;94937.16;;;9.31;100.00
40708;BME280;26392;42.696;23.350;2023-03-25T05:45:14;94948.44;;;9.45;100.00
40708;BME280;26392;42.696;23.350;2023-03-25T05:47:42;94941.22;;;9.55;100.00
40708;BME280;26392;42.696;23.350;2023-03-25T05:50:09;94945.63;;;9.61;100.00
40708;BME280;26392;42.696;23.350;2023-03-25T05:52:35;94938.03;;;9.63;100.00
40708;BME280;26392;42.696;23.350;2023-03-25T05:55:01;94935.03;;;9.65;100.00
40708;BME280;26392;42.696;23.350;2023-03-25T05:57:27;94941.69;;;9.79;100.00
40708;BME280;26392;42.696;23.350;2023-03-25T05:59:53;94943.13;;;9.87;100.00
40708;BME280;26392;42.696;23.350;2023-03-25T06:02:20;94939.38;;;9.61;100.00
40708;BME280;26392;42.696;23.350;2023-03-25T06:04:47;94943.53;;;9.74;100.00
40708;BME280;26392;42.696;23.350;2023-03-25T06:07:14;94947.75;;;9.86;100.00
40708;BME280;26392;42.696;23.350;2023-03-25T06:09:47;94943.22;;;10.02;100.00
40708;BME280;26392;42.696;23.350;2023-03-25T06:12:14;94940.59;;;10.13;100.00
40708;BME280;26392;42.696;23.350;2023-03-25T06:14:40;94923.25;;;10.24;100.00
40708;BME280;26392;42.696;23.350;2023-03-25T06:17:08;94918.97;;;10.33;100.00
40708;BME280;26392;42.696;23.350;2023-03-25T06:19:35;94932.69;;;10.48;100.00
40708;BME280;26392;42.696;23.350;2023-03-25T06:22:07;94929.16;;;10.48;100.00
40708;BME280;26392;42.696;23.350;2023-03-25T06:24:37;94935.44;;;10.53;100.00
40708;BME280;26392;42.696;23.350;2023-03-25T06:27:04;94940.00;;;10.43;100.00
40708;BME280;26392;42.696;23.350;2023-03-25T06:29:32;94942.25;;;10.51;100.00
40708;BME280;26392;42.696;23.350;2023-03-25T06:31:58;94945.31;;;10.22;100.00
40708;BME280;26392;42.696;23.350;2023-03-25T06:34:23;94946.19;;;10.28;100.00
40708;BME280;26392;42.696;23.350;2023-03-25T06:36:49;94947.91;;;10.39;100.00
40708;BME280;26392;42.696;23.350;2023-03-25T06:39:15;94944.41;;;10.49;100.00
40708;BME280;26392;42.696;23.350;2023-03-25T06:41:41;94945.81;;;10.57;100.00
40708;BME280;26392;42.696;23.350;2023-03-25T06:44:06;94943.38;;;10.60;100.00
40708;BME280;26392;42.696;23.350;2023-03-25T06:46:32;94940.22;;;10.84;100.00
40708;BME280;26392;42.696;23.350;2023-03-25T06:48:57;94945.75;;;10.99;100.00
40708;BME280;26392;42.696;23.350;2023-03-25T06:51:23;94922.59;;;11.07;100.00
40708;BME280;26392;42.696;23.350;2023-03-25T06:53:48;94943.06;;;11.19;100.00
40708;BME280;26392;42.696;23.350;2023-03-25T06:56:14;94944.47;;;11.27;100.00
40708;BME280;26392;42.696;23.350;2023-03-25T06:58:39;94951.88;;;11.42;100.00
40708;BME280;26392;42.696;23.350;2023-03-25T07:01:05;94949.72;;;11.49;100.00
40708;BME280;26392;42.696;23.350;2023-03-25T07:03:35;94956.03;;;11.65;100.00
40708;BME280;26392;42.696;23.350;2023-03-25T07:06:01;94961.50;;;11.65;100.00
40708;BME280;26392;42.696;23.350;2023-03-25T07:08:26;94954.63;;;11.68;100.00
40708;BME280;26392;42.696;23.350;2023-03-25T07:10:52;94950.31;;;11.82;100.00
40708;BME280;26392;42.696;23.350;2023-03-25T07:13:17;94947.00;;;11.70;100.00
40708;BME280;26392;42.696;23.350;2023-03-25T07:15:42;94938.59;;;11.92;100.00
40708;BME280;26392;42.696;23.350;2023-03-25T07:18:08;94941.88;;;12.09;99.08
40708;BME280;26392;42.696;23.350;2023-03-25T07:20:33;94932.31;;;12.22;96.60
40708;BME280;26392;42.696;23.350;2023-03-25T07:22:59;94937.78;;;12.27;92.77
40708;BME280;26392;42.696;23.350;2023-03-25T07:25:24;94939.38;;;12.43;92.97
40708;BME280;26392;42.696;23.350;2023-03-25T07:27:50;94946.19;;;12.56;92.27
40708;BME280;26392;42.696;23.350;2023-03-25T07:30:16;94945.38;;;12.56;89.81
40708;BME280;26392;42.696;23.350;2023-03-25T07:32:43;94938.53;;;12.63;88.35
40708;BME280;26392;42.696;23.350;2023-03-25T07:35:09;94931.38;;;12.77;87.77
40708;BME280;26392;42.696;23.350;2023-03-25T07:37:35;94921.50;;;12.97;86.92
40708;BME280;26392;42.696;23.350;2023-03-25T07:40:00;94919.78;;;13.06;85.51
40708;BME280;26392;42.696;23.350;2023-03-25T07:42:26;94927.63;;;13.33;84.28
40708;BME280;26392;42.696;23.350;2023-03-25T07:44:51;94934.34;;;13.56;81.40
40708;BME280;26392;42.696;23.350;2023-03-25T07:47:17;94925.25;;;13.61;80.95
40708;BME280;26392;42.696;23.350;2023-03-25T07:49:42;94922.03;;;13.93;80.39
40708;BME280;26392;42.696;23.350;2023-03-25T07:52:08;94929.81;;;14.15;76.99
40708;BME280;26392;42.696;23.350;2023-03-25T07:54:34;94920.34;;;14.31;75.34
40708;BME280;26392;42.696;23.350;2023-03-25T07:57:00;94917.66;;;14.55;74.44
40708;BME280;26392;42.696;23.350;2023-03-25T07:59:26;94912.91;;;14.37;72.63
40708;BME280;26392;42.696;23.350;2023-03-25T08:01:51;94908.91;;;14.53;72.32
40708;BME280;26392;42.696;23.350;2023-03-25T08:04:17;94911.78;;;14.67;71.53
40708;BME280;26392;42.696;23.350;2023-03-25T08:06:42;94907.56;;;14.80;70.36
40708;BME280;26392;42.696;23.350;2023-03-25T08:09:08;94898.19;;;14.81;69.75
40708;BME280;26392;42.696;23.350;2023-03-25T08:11:33;94906.22;;;15.02;69.65
40708;BME280;26392;42.696;23.350;2023-03-25T08:13:59;94899.22;;;15.09;67.71
40708;BME280;26392;42.696;23.350;2023-03-25T08:16:24;94887.31;;;15.19;68.16
40708;BME280;26392;42.696;23.350;2023-03-25T08:18:50;94889.25;;;15.37;67.67
40708;BME280;26392;42.696;23.350;2023-03-25T08:21:18;94882.50;;;15.67;66.24
40708;BME280;26392;42.696;23.350;2023-03-25T08:23:53;94892.50;;;15.82;63.98
40708;BME280;26392;42.696;23.350;2023-03-25T08:26:27;94882.72;;;16.09;63.11
40708;BME280;26392;42.696;23.350;2023-03-25T08:28:54;94871.19;;;16.40;61.43
40708;BME280;26392;42.696;23.350;2023-03-25T08:31:25;94869.59;;;16.66;59.80
40708;BME280;26392;42.696;23.350;2023-03-25T08:33:51;94876.06;;;16.89;58.32
40708;BME280;26392;42.696;23.350;2023-03-25T08:36:17;94883.91;;;16.82;57.32
40708;BME280;26392;42.696;23.350;2023-03-25T08:38:48;94880.25;;;17.14;56.79
40708;BME280;26392;42.696;23.350;2023-03-25T08:41:13;94876.56;;;17.19;55.18
40708;BME280;26392;42.696;23.350;2023-03-25T08:43:39;94870.63;;;17.39;54.56
40708;BME280;26392;42.696;23.350;2023-03-25T08:46:05;94862.59;;;17.65;54.42
40708;BME280;26392;42.696;23.350;2023-03-25T08:48:30;94857.25;;;17.83;54.34
40708;BME280;26392;42.696;23.350;2023-03-25T08:50:56;94857.59;;;18.04;53.22
40708;BME280;26392;42.696;23.350;2023-03-25T08:53:22;94857.06;;;18.24;53.06
40708;BME280;26392;42.696;23.350;2023-03-25T08:55:55;94860.41;;;17.90;52.87
40708;BME280;26392;42.696;23.350;2023-03-25T08:58:21;94862.84;;;17.78;53.50
40708;BME280;26392;42.696;23.350;2023-03-25T09:00:49;94856.44;;;17.82;54.39
40708;BME280;26392;42.696;23.350;2023-03-25T09:03:22;94854.00;;;17.81;54.16
40708;BME280;26392;42.696;23.350;2023-03-25T09:05:48;94848.44;;;17.95;53.95
40708;BME280;26392;42.696;23.350;2023-03-25T09:08:13;94845.50;;;17.91;53.60
40708;BME280;26392;42.696;23.350;2023-03-25T09:10:40;94831.31;;;17.84;54.19
40708;BME280;26392;42.696;23.350;2023-03-25T09:13:06;94833.59;;;18.04;53.15
40708;BME280;26392;42.696;23.350;2023-03-25T09:15:31;94837.09;;;18.19;52.51
40708;BME280;26392;42.696;23.350;2023-03-25T09:17:57;94831.81;;;18.31;52.23
40708;BME280;26392;42.696;23.350;2023-03-25T09:20:22;94832.94;;;18.30;52.28
40708;BME280;26392;42.696;23.350;2023-03-25T09:22:48;94821.03;;;18.43;51.84
40708;BME280;26392;42.696;23.350;2023-03-25T09:25:13;94823.72;;;18.66;50.86
40708;BME280;26392;42.696;23.350;2023-03-25T09:27:39;94807.25;;;18.83;49.76
40708;BME280;26392;42.696;23.350;2023-03-25T09:30:06;94808.13;;;19.10;49.17
40708;BME280;26392;42.696;23.350;2023-03-25T09:32:32;94819.16;;;19.10;48.13
40708;BME280;26392;42.696;23.350;2023-03-25T09:34:58;94817.78;;;18.81;49.32
40708;BME280;26392;42.696;23.350;2023-03-25T09:37:23;94815.16;;;18.76;49.08
40708;BME280;26392;42.696;23.350;2023-03-25T09:39:49;94813.41;;;18.80;49.29
40708;BME280;26392;42.696;23.350;2023-03-25T09:45:38;94807.03;;;19.45;48.05
40708;BME280;26392;42.696;23.350;2023-03-25T09:48:32;94800.56;;;19.59;48.17
40708;BME280;26392;42.696;23.350;2023-03-25T09:51:12;94804.97;;;19.77;47.16
40708;BME280;26392;42.696;23.350;2023-03-25T09:56:20;94790.63;;;20.10;46.32
40708;BME280;26392;42.696;23.350;2023-03-25T09:58:49;94787.84;;;20.10;44.97
40708;BME280;26392;42.696;23.350;2023-03-25T10:03:58;94778.75;;;20.74;43.97
40708;BME280;26392;42.696;23.350;2023-03-25T10:06:31;94766.09;;;20.64;42.95
40708;BME280;26392;42.696;23.350;2023-03-25T10:12:00;94766.59;;;20.58;40.15
40708;BME280;26392;42.696;23.350;2023-03-25T10:20:15;94769.72;;;20.39;39.60
40708;BME280;26392;42.696;23.350;2023-03-25T10:25:19;94746.06;;;20.50;38.63
40708;BME280;26392;42.696;23.350;2023-03-25T10:27:50;94746.69;;;20.73;38.81
40708;BME280;26392;42.696;23.350;2023-03-25T10:32:49;94731.97;;;20.81;38.19
40708;BME280;26392;42.696;23.350;2023-03-25T10:35:19;94728.34;;;20.60;37.56
40708;BME280;26392;42.696;23.350;2023-03-25T10:37:48;94736.28;;;20.70;37.71
40708;BME280;26392;42.696;23.350;2023-03-25T10:40:26;94733.69;;;20.65;37.05
40708;BME280;26392;42.696;23.350;2023-03-25T10:45:48;94719.19;;;20.68;38.70
40708;BME280;26392;42.696;23.350;2023-03-25T10:48:26;94704.19;;;20.69;39.29
40708;BME280;26392;42.696;23.350;2023-03-25T10:51:17;94712.94;;;20.79;38.91
40708;BME280;26392;42.696;23.350;2023-03-25T10:53:46;94714.34;;;20.86;38.53
40708;BME280;26392;42.696;23.350;2023-03-25T10:58:40;94703.88;;;21.21;37.82
40708;BME280;26392;42.696;23.350;2023-03-25T11:01:18;94700.47;;;21.36;37.75
40708;BME280;26392;42.696;23.350;2023-03-25T11:03:46;94696.16;;;21.68;37.91
40708;BME280;26392;42.696;23.350;2023-03-25T11:06:30;94698.25;;;21.51;37.89
40708;BME280;26392;42.696;23.350;2023-03-25T11:09:26;94694.38;;;21.64;37.87
40708;BME280;26392;42.696;23.350;2023-03-25T11:11:55;94696.56;;;21.58;38.02
40708;BME280;26392;42.696;23.350;2023-03-25T11:14:25;94685.44;;;21.79;38.17
40708;BME280;26392;42.696;23.350;2023-03-25T11:17:14;94679.84;;;22.00;38.07
40708;BME280;26392;42.696;23.350;2023-03-25T11:22:18;94674.38;;;21.92;37.85
40708;BME280;26392;42.696;23.350;2023-03-25T11:24:47;94670.72;;;21.66;37.97
40708;BME280;26392;42.696;23.350;2023-03-25T11:27:20;94666.50;;;21.81;37.80
40708;BME280;26392;42.696;23.350;2023-03-25T11:29:54;94659.34;;;21.47;38.04
40708;BME280;26392;42.696;23.350;2023-03-25T11:35:00;94653.47;;;21.82;38.03
40708;BME280;26392;42.696;23.350;2023-03-25T11:37:28;94649.91;;;22.06;37.08
40708;BME280;26392;42.696;23.350;2023-03-25T11:40:03;94636.16;;;22.09;36.48
40708;BME280;26392;42.696;23.350;2023-03-25T11:42:32;94650.41;;;22.20;36.72
40708;BME280;26392;42.696;23.350;2023-03-25T11:45:00;94639.22;;;22.41;35.60
40708;BME280;26392;42.696;23.350;2023-03-25T11:47:35;94631.00;;;22.57;35.00
40708;BME280;26392;42.696;23.350;2023-03-25T11:50:02;94634.81;;;22.65;34.48
40708;BME280;26392;42.696;23.350;2023-03-25T11:52:43;94630.09;;;22.53;34.86
40708;BME280;26392;42.696;23.350;2023-03-25T11:55:22;94620.72;;;22.70;34.68
40708;BME280;26392;42.696;23.350;2023-03-25T11:57:50;94616.75;;;22.95;34.45
40708;BME280;26392;42.696;23.350;2023-03-25T12:00:25;94609.63;;;23.22;34.19
40708;BME280;26392;42.696;23.350;2023-03-25T12:02:59;94614.28;;;23.06;34.32
40708;BME280;26392;42.696;23.350;2023-03-25T12:05:24;94633.41;;;22.95;34.63
40708;BME280;26392;42.696;23.350;2023-03-25T12:07:51;94603.00;;;22.74;35.00
40708;BME280;26392;42.696;23.350;2023-03-25T12:10:41;94593.88;;;22.62;35.15
40708;BME280;26392;42.696;23.350;2023-03-25T12:13:12;94598.63;;;22.37;35.24
40708;BME280;26392;42.696;23.350;2023-03-25T12:24:34;94600.38;;;21.59;36.09
40708;BME280;26392;42.696;23.350;2023-03-25T12:37:35;94594.22;;;20.99;36.78
40708;BME280;26392;42.696;23.350;2023-03-25T12:43:20;94617.63;;;21.22;36.37
40708;BME280;26392;42.696;23.350;2023-03-25T13:05:26;94586.75;;;21.33;36.38
40708;BME280;26392;42.696;23.350;2023-03-25T13:08:03;94597.03;;;21.11;36.06
40708;BME280;26392;42.696;23.350;2023-03-25T13:10:36;94587.88;;;20.98;36.44
40708;BME280;26392;42.696;23.350;2023-03-25T13:13:09;94605.63;;;20.97;36.39
40708;BME280;26392;42.696;23.350;2023-03-25T13:15:41;94590.56;;;20.86;36.91
40708;BME280;26392;42.696;23.350;2023-03-25T13:18:21;94601.31;;;20.88;37.31
40708;BME280;26392;42.696;23.350;2023-03-25T13:21:03;94605.50;;;20.94;37.24
40708;BME280;26392;42.696;23.350;2023-03-25T13:23:33;94599.56;;;20.83;37.31
40708;BME280;26392;42.696;23.350;2023-03-25T13:26:30;94601.31;;;20.88;37.36
40708;BME280;26392;42.696;23.350;2023-03-25T13:28:59;94593.34;;;20.65;37.73
40708;BME280;26392;42.696;23.350;2023-03-25T13:31:30;94588.84;;;20.52;38.74
40708;BME280;26392;42.696;23.350;2023-03-25T13:36:40;94594.16;;;20.36;38.33
40708;BME280;26392;42.696;23.350;2023-03-25T13:39:15;94588.34;;;20.29;38.95
40708;BME280;26392;42.696;23.350;2023-03-25T13:41:46;94611.91;;;20.35;38.86
40708;BME280;26392;42.696;23.350;2023-03-25T13:44:27;94617.03;;;20.16;39.44
40708;BME280;26392;42.696;23.350;2023-03-25T13:49:45;94615.44;;;19.59;41.98
40708;BME280;26392;42.696;23.350;2023-03-25T13:52:13;94622.00;;;19.37;42.36
40708;BME280;26392;42.696;23.350;2023-03-25T13:54:59;94634.03;;;19.23;42.22
40708;BME280;26392;42.696;23.350;2023-03-25T14:11:28;94652.28;;;18.41;50.47
40708;BME280;26392;42.696;23.350;2023-03-25T14:14:02;94647.38;;;18.21;50.06
40708;BME280;26392;42.696;23.350;2023-03-25T14:16:34;94664.25;;;18.28;52.32
40708;BME280;26392;42.696;23.350;2023-03-25T14:19:07;94654.13;;;18.15;53.87
40708;BME280;26392;42.696;23.350;2023-03-25T14:26:30;94655.94;;;18.19;58.39
40708;BME280;26392;42.696;23.350;2023-03-25T14:29:02;94646.16;;;18.04;57.81
40708;BME280;26392;42.696;23.350;2023-03-25T14:31:31;94657.16;;;17.96;65.22
40708;BME280;26392;42.696;23.350;2023-03-25T14:34:23;94649.47;;;17.84;66.13
40708;BME280;26392;42.696;23.350;2023-03-25T14:37:13;94652.38;;;17.79;69.31
40708;BME280;26392;42.696;23.350;2023-03-25T14:39:38;94638.03;;;17.68;74.40
40708;BME280;26392;42.696;23.350;2023-03-25T14:44:38;94600.03;;;17.48;83.29
40708;BME280;26392;42.696;23.350;2023-03-25T14:52:56;94568.72;;;17.75;97.61
40708;BME280;26392;42.696;23.350;2023-03-25T14:55:29;94564.06;;;17.84;94.44
40708;BME280;26392;42.696;23.350;2023-03-25T14:58:01;94565.19;;;17.83;90.05
40708;BME280;26392;42.696;23.350;2023-03-25T15:00:32;94567.53;;;17.98;87.74
40708;BME280;26392;42.696;23.350;2023-03-25T15:03:17;94573.38;;;18.05;86.13
40708;BME280;26392;42.696;23.350;2023-03-25T15:05:52;94573.88;;;18.07;84.58
40708;BME280;26392;42.696;23.350;2023-03-25T15:08:27;94573.22;;;18.02;84.84
40708;BME280;26392;42.696;23.350;2023-03-25T15:11:05;94565.59;;;18.07;83.86
40708;BME280;26392;42.696;23.350;2023-03-25T15:13:41;94553.44;;;18.08;83.90
40708;BME280;26392;42.696;23.350;2023-03-25T15:18:57;94557.66;;;18.15;81.89
40708;BME280;26392;42.696;23.350;2023-03-25T15:21:24;94556.38;;;18.12;83.15
40708;BME280;26392;42.696;23.350;2023-03-25T15:26:33;94565.59;;;17.99;85.09
40708;BME280;26392;42.696;23.350;2023-03-25T15:57:10;94534.66;;;17.31;82.84
40708;BME280;26392;42.696;23.350;2023-03-25T16:02:32;94544.94;;;17.16;82.23
40708;BME280;26392;42.696;23.350;2023-03-25T16:05:01;94552.34;;;17.07;84.60
40708;BME280;26392;42.696;23.350;2023-03-25T16:07:28;94550.22;;;17.04;85.45